Hauptseite
METAR-TAF:

METAR-TAF

Flughäfen :

Cambridge, England

Breite: 52-12N, Länge: 000-11E, Höhe: 15 m

Beobachtung

Neuester Wetterbericht von vor 15 Minuten, um 13:20 UTC
Wind 7 kt aus West, variierte zwischen West/Südwest und Nordwest
Temperatur 23°C
Luftfeuchtigkeit 41%
Luftdruck 1015 hPa
Sichtweite 10 km oder mehr
Aufgelockert bewölkt in der Höhe von 4500 ft

METAR: EGSC 171320Z 28007KT 240V320 9999 SCT045 23/09 Q1015

Zeit: 14:35 (13:35 UTC)

Prognose

Neuester Wetterbericht von vor 2 Stunden und 40 Minuten, um 10:55 UTC
Gültige Prognose vom 17 um 12 UTC bis 17 um 21 UTC
Wind 9 kt aus West
Sichtweite 10 km oder mehr
Leicht bewölkt in der Höhe von 4500 ft

TAF: EGSC 171055Z 1712/1721 26009KT 9999 FEW045

Wetterbeobachtungen und Prognosen von mehr als 4000 Flughäfen (METAR und TAF Bericht).

Die verfügbaren Stationen werden durch gelbe und rote Markierungen auf der Karte dargestellt.

Führen Sie die Maus auf sie, um den Namen der Station zu sehen.

Darauf klicken, um die Beobachtung von Wetterbeobachtungen und Prognosen zu sehen.

Um die Karte zu ändern : klicken Sie auf den grünen Tasten mit einem schwarzen Kreuz Zum Vergrößern, auf den grünen Button mit einem Gedankenstrich zu verkleinern, oder auf die grünen Pfeile für benachbarte Karten.


METAR-TAF: